EPWAEPRZ

Guest
Details From EPWA - WARSZAWA Okecie
To EPRZ - JASIONKA
Flight Number -
Tags decoded
Created
Modified
Stats Distance 1,635 nm / 3,027 km
Max Altitude 0 ft / 0 m
Waypoints 3
Social Downloads 0
Likes 0
Share VATSIM

Download

Looking for another format? Having issues loading an existing format? Contact us
Advertisement - Login to hide

Notes

Requested: EPWA BROWS TRM LRAIN EPRZ

Route

EPWA TRM EPRZ

ID Type Via Altitude Latitude Longitude Leg Dist Tot Dist Heading (true) Name
O EPWA APT - 0 ft / 0 m 52.16509˚ 20.96692˚ - 0 nm - WARSZAWA Okecie
TRM VOR - 0 ft / 0 m 63.52587˚ 10.89007˚ 752 nm 752 nm 339° / 330° TRONDHEIM VOR-DME
O EPRZ APT - 0 ft / 0 m 50.10761˚ 22.03610˚ 882 nm 1634 nm 151° / 160° JASIONKA

Altitude Profile

Advertisement - Login to hide

Weather


0- 5 10 15 20 25 30 35+ Temperature / ° C

Clouds and Precipitation
Forecast for 2018-05-27 18:00 UTC. Updated 29 minutes ago

Ground ~20,000 ft ~40,000 ft Winds

EPWA

Details ICAO EPWA (WAW)
Name WARSZAWA Okecie
Region Poland
Timezone Europe/Warsaw (UTC+2.0)
Stats Elevation 328 ft / 100 m (AMSL)
Location 52.165091° 20.966923°
Runways 2
Magnetic Variation 5.859° E

METAR

EPWA 271730Z 09008KT CAVOK 25/12 Q1022 NOSIG

Decode

TAF

TAF EPWA 271430Z 2715/2815 10008KT CAVOK

Decode

Departure Runways

ID Width Length Bearing (true) Bearing (mag) Surface Threshold Offset Overrun Length
11 164 ft / 50 m 9,163 ft / 2,793 m 114.64° 108.78° Asphalt 0 ft / 0 m 476 ft / 145 m
15 197 ft / 60 m 12,112 ft / 3,692 m 151.85° 145.99° Asphalt 0 ft / 0 m 0 ft / 0 m
29 164 ft / 50 m 9,163 ft / 2,793 m 294.67° 288.81° Asphalt 1,608 ft / 490 m 0 ft / 0 m
33 197 ft / 60 m 12,112 ft / 3,692 m 331.87° 326.01° Asphalt 0 ft / 0 m 0 ft / 0 m

EPRZ

Details ICAO EPRZ (RZE)
Name JASIONKA
Region Poland
Timezone Europe/Warsaw (UTC+2.0)
Stats Elevation 675 ft / 206 m (AMSL)
Location 50.107614° 22.036096°
Runways 2
Magnetic Variation 5.779° E

METAR

EPRZ 271730Z 10007KT CAVOK 23/14 Q1021

Decode

TAF

TAF EPRZ 271130Z 2712/2812 09011KT CAVOK TEMPO 2714/2718 SCT040TCU

Decode

Destination Runways

ID Width Length Bearing (true) Bearing (mag) Surface Threshold Offset Overrun Length
08 1,050 ft / 320 m 2,709 ft / 826 m 80.74° 74.96° Grass 0 ft / 0 m 0 ft / 0 m
09 148 ft / 45 m 10,469 ft / 3,191 m 91.16° 85.38° Concrete 0 ft / 0 m 0 ft / 0 m
26 1,050 ft / 320 m 2,709 ft / 826 m 260.74° 254.96° Grass 0 ft / 0 m 0 ft / 0 m
27 148 ft / 45 m 10,469 ft / 3,191 m 271.20° 265.42° Concrete 2,297 ft / 700 m 0 ft / 0 m

Approach Navaids

Runway Type Ident Frequency Range Bearing (true) Bearing (mag) Slope Elevation
27 Localiser RZW 110.30 MHz 18 nm / 33 km 271.15° 265.37° - 675 ft / 206 m (AMSL)
27 Glidescope RZW 110.30 MHz 10 nm / 19 km 271.18° 265.40° 2.90° 675 ft / 206 m (AMSL)
27 DME RZW 110.30 MHz 18 nm / 33 km - - - 787 ft / 240 m (AMSL)

Popular Alternatives